createdAt,value
2019-03-13T00:00:01.985Z,22.43
2019-03-13T00:02:28.635Z,22.50
2019-03-13T00:04:55.296Z,22.55
2019-03-13T00:07:21.940Z,22.61
2019-03-13T00:09:48.631Z,22.61
2019-03-13T00:12:15.278Z,22.66
2019-03-13T00:14:41.907Z,22.66
2019-03-13T00:17:08.713Z,22.66
2019-03-13T00:19:35.405Z,22.67
2019-03-13T00:22:02.052Z,22.70
2019-03-13T00:24:28.707Z,22.71
2019-03-13T00:26:55.378Z,22.70
2019-03-13T00:29:23.460Z,22.70
2019-03-13T00:31:48.818Z,22.71
2019-03-13T00:34:15.383Z,22.71
2019-03-13T00:36:42.024Z,22.70
2019-03-13T00:39:08.678Z,22.69
2019-03-13T00:41:35.329Z,22.74
2019-03-13T00:44:01.981Z,22.74
2019-03-13T00:46:28.625Z,22.70
2019-03-13T00:48:55.293Z,22.70
2019-03-13T00:51:22.172Z,22.73
2019-03-13T00:53:48.811Z,22.71
2019-03-13T00:56:15.506Z,22.71
2019-03-13T00:58:42.154Z,22.69
2019-03-13T01:01:08.837Z,22.68
2019-03-13T01:03:35.479Z,22.68
2019-03-13T01:06:02.134Z,22.70
2019-03-13T01:08:28.769Z,22.68
2019-03-13T01:10:55.673Z,22.69
2019-03-13T01:13:22.318Z,22.70
2019-03-13T01:15:49.011Z,22.66
2019-03-13T01:18:15.646Z,22.66
2019-03-13T01:20:42.304Z,22.67
2019-03-13T01:23:08.991Z,22.68
2019-03-13T01:25:35.634Z,22.67
2019-03-13T01:28:02.262Z,22.67
2019-03-13T01:30:28.954Z,22.67
2019-03-13T01:32:55.596Z,22.67
2019-03-13T01:35:22.244Z,22.67
2019-03-13T01:37:48.893Z,22.66
2019-03-13T01:40:15.551Z,22.64
2019-03-13T01:42:42.249Z,22.67
2019-03-13T01:45:08.915Z,22.67
2019-03-13T01:47:35.560Z,22.62
2019-03-13T01:50:02.254Z,22.62
2019-03-13T01:52:32.079Z,22.65
2019-03-13T01:54:55.585Z,22.63
2019-03-13T01:57:22.185Z,22.65
2019-03-13T01:59:48.873Z,22.62
2019-03-13T02:02:15.520Z,22.61
2019-03-13T02:04:42.290Z,22.58
2019-03-13T02:07:08.936Z,22.61
2019-03-13T02:09:35.593Z,22.60
2019-03-13T02:12:02.236Z,22.64
2019-03-13T02:14:28.888Z,22.61
2019-03-13T02:16:55.674Z,22.62
2019-03-13T02:19:22.428Z,22.62
2019-03-13T02:21:49.105Z,22.58
2019-03-13T02:24:15.791Z,22.56
2019-03-13T02:26:42.541Z,22.58
2019-03-13T02:29:09.177Z,22.57
2019-03-13T02:31:35.828Z,22.56
2019-03-13T02:34:02.512Z,22.57
2019-03-13T02:36:29.153Z,22.52
2019-03-13T02:38:55.787Z,22.50
2019-03-13T02:41:22.437Z,22.40
2019-03-13T02:43:49.170Z,22.28
2019-03-13T02:46:15.843Z,22.32
2019-03-13T02:48:42.521Z,22.36
2019-03-13T02:51:09.166Z,22.36
2019-03-13T02:53:35.820Z,22.38
2019-03-13T02:56:02.448Z,22.39
2019-03-13T02:58:29.133Z,22.42
2019-03-13T03:00:55.811Z,22.42
2019-03-13T03:03:22.456Z,22.42
2019-03-13T03:05:49.105Z,22.40
2019-03-13T03:08:15.900Z,22.42
2019-03-13T03:10:42.557Z,22.45
2019-03-13T03:13:09.201Z,22.44
2019-03-13T03:15:35.833Z,22.44
2019-03-13T03:18:02.487Z,22.43
2019-03-13T03:20:29.125Z,22.41
2019-03-13T03:22:55.808Z,22.43
2019-03-13T03:25:22.487Z,22.41
2019-03-13T03:27:49.138Z,22.42
2019-03-13T03:30:15.794Z,22.41
2019-03-13T03:32:42.458Z,22.42
2019-03-13T03:35:09.149Z,22.43
2019-03-13T03:37:35.779Z,22.43
2019-03-13T03:40:02.430Z,22.47
2019-03-13T03:42:29.082Z,22.44
2019-03-13T03:44:57.121Z,22.44
2019-03-13T03:47:22.412Z,22.45
2019-03-13T03:49:49.097Z,22.46
2019-03-13T03:52:15.738Z,22.43
2019-03-13T03:54:42.438Z,22.42
2019-03-13T03:57:09.199Z,22.42
2019-03-13T03:59:35.786Z,22.44
2019-03-13T04:02:02.432Z,22.46
2019-03-13T04:04:29.088Z,22.46
2019-03-13T04:06:55.729Z,22.44
2019-03-13T04:09:22.365Z,22.03
2019-03-13T04:11:49.029Z,21.41
2019-03-13T04:14:15.711Z,21.03
2019-03-13T04:16:42.326Z,21.10
2019-03-13T04:19:08.964Z,21.33
2019-03-13T04:21:35.652Z,21.26
2019-03-13T04:24:02.319Z,21.31
2019-03-13T04:26:28.967Z,21.27
2019-03-13T04:28:55.604Z,20.90
2019-03-13T04:31:22.285Z,20.77
2019-03-13T04:33:48.933Z,21.06
2019-03-13T04:36:15.588Z,21.52
2019-03-13T04:38:42.218Z,21.70
2019-03-13T04:41:08.903Z,21.86
2019-03-13T04:43:35.571Z,21.94
2019-03-13T04:46:02.205Z,22.00
2019-03-13T04:48:28.863Z,22.03
2019-03-13T04:50:55.536Z,22.03
2019-03-13T04:53:23.781Z,22.18
2019-03-13T04:55:48.771Z,22.22
2019-03-13T04:58:15.433Z,22.23
2019-03-13T05:00:42.135Z,22.21
2019-03-13T05:03:08.744Z,22.28
2019-03-13T05:05:35.477Z,22.26
2019-03-13T05:08:02.116Z,22.30
2019-03-13T05:10:28.901Z,22.25
2019-03-13T05:12:55.627Z,22.26
2019-03-13T05:15:22.329Z,22.26
2019-03-13T05:17:48.977Z,22.27
2019-03-13T05:20:15.658Z,22.46
2019-03-13T05:22:42.390Z,22.41
2019-03-13T05:25:09.037Z,22.37
2019-03-13T05:27:35.683Z,22.37
2019-03-13T05:30:02.324Z,22.38
2019-03-13T05:32:29.014Z,22.56
2019-03-13T05:34:55.705Z,22.63
2019-03-13T05:37:22.545Z,22.48
2019-03-13T05:39:49.180Z,22.48
2019-03-13T05:42:15.880Z,22.50
2019-03-13T05:44:42.528Z,22.60
2019-03-13T05:47:09.180Z,22.59
2019-03-13T05:49:35.830Z,22.54
2019-03-13T05:52:02.523Z,22.58
2019-03-13T05:54:29.208Z,22.57
2019-03-13T05:56:55.891Z,22.67
2019-03-13T05:59:22.588Z,22.63
2019-03-13T06:01:49.228Z,22.66
2019-03-13T06:04:15.903Z,22.57
2019-03-13T06:06:42.541Z,22.76
2019-03-13T06:09:09.198Z,22.77
2019-03-13T06:11:35.884Z,22.82
2019-03-13T06:14:02.558Z,22.82
2019-03-13T06:16:29.214Z,22.88
2019-03-13T06:18:55.888Z,22.97
2019-03-13T06:21:22.524Z,23.13
2019-03-13T06:23:49.177Z,22.99
2019-03-13T06:26:15.833Z,23.22
2019-03-13T06:28:42.478Z,23.33
2019-03-13T06:31:09.160Z,23.36
2019-03-13T06:33:35.797Z,23.38
2019-03-13T06:36:02.483Z,23.52
2019-03-13T06:38:29.127Z,23.58
2019-03-13T06:40:55.793Z,23.52
2019-03-13T06:43:22.553Z,23.59
2019-03-13T06:45:49.201Z,23.65
2019-03-13T06:48:15.904Z,23.73
2019-03-13T06:50:42.633Z,23.96
2019-03-13T06:53:09.308Z,23.81
2019-03-13T06:55:36.088Z,24.05
2019-03-13T06:58:02.755Z,23.94
2019-03-13T07:00:29.403Z,24.18
2019-03-13T07:02:56.150Z,24.02
2019-03-13T07:05:22.817Z,24.14
2019-03-13T07:07:49.520Z,24.10
2019-03-13T07:10:16.231Z,24.24
2019-03-13T07:12:42.869Z,24.25
2019-03-13T07:15:10.801Z,24.55
2019-03-13T07:17:37.532Z,24.45
2019-03-13T07:20:06.806Z,24.56
2019-03-13T07:22:33.515Z,24.45
2019-03-13T07:25:00.266Z,24.46
2019-03-13T07:27:26.839Z,24.69
2019-03-13T07:29:53.497Z,24.79
2019-03-13T07:32:20.225Z,24.73
2019-03-13T07:34:46.863Z,24.80
2019-03-13T07:37:13.546Z,24.81
2019-03-13T07:39:40.202Z,24.82
2019-03-13T07:42:06.855Z,24.78
2019-03-13T07:44:33.529Z,24.80
2019-03-13T07:47:00.220Z,24.69
2019-03-13T07:49:26.864Z,24.67
2019-03-13T07:51:53.524Z,24.41
2019-03-13T07:54:20.184Z,24.27
2019-03-13T07:56:46.850Z,24.08
2019-03-13T07:59:15.100Z,23.92
2019-03-13T08:01:40.197Z,24.10
2019-03-13T08:04:06.877Z,24.16
2019-03-13T08:06:33.573Z,24.31
2019-03-13T08:09:00.294Z,24.57
2019-03-13T08:11:26.981Z,24.53
2019-03-13T08:13:53.622Z,24.56
2019-03-13T08:16:20.289Z,24.50
2019-03-13T08:18:49.827Z,24.44
2019-03-13T08:21:16.835Z,24.51
2019-03-13T08:23:43.554Z,24.49
2019-03-13T08:26:10.306Z,24.47
2019-03-13T08:28:36.958Z,24.70
2019-03-13T08:31:03.602Z,24.63
2019-03-13T08:33:30.335Z,24.64
2019-03-13T08:35:56.981Z,24.60
2019-03-13T08:38:23.627Z,24.62
2019-03-13T08:40:50.294Z,24.61
2019-03-13T08:43:17.387Z,24.60
2019-03-13T08:45:44.040Z,24.59
2019-03-13T08:48:10.713Z,24.61
2019-03-13T08:50:37.364Z,24.63
2019-03-13T08:53:04.049Z,24.73
2019-03-13T08:55:30.707Z,24.77
2019-03-13T08:57:57.456Z,24.61
2019-03-13T09:00:24.128Z,24.69
2019-03-13T09:02:50.791Z,24.78
2019-03-13T09:05:17.433Z,24.73
2019-03-13T09:07:44.082Z,24.64
2019-03-13T09:10:10.828Z,24.79
2019-03-13T09:12:37.414Z,24.82
2019-03-13T09:15:04.238Z,24.72
2019-03-13T09:17:30.937Z,24.68
2019-03-13T09:19:57.587Z,24.71
2019-03-13T09:22:24.345Z,24.78
2019-03-13T09:24:50.992Z,24.88
2019-03-13T09:27:17.682Z,24.81
2019-03-13T09:29:44.369Z,24.94
2019-03-13T09:32:11.095Z,24.85
2019-03-13T09:34:37.742Z,24.89
2019-03-13T09:37:04.404Z,24.88
2019-03-13T09:39:32.578Z,24.68
2019-03-13T09:41:57.828Z,24.87
2019-03-13T09:44:24.488Z,24.94
2019-03-13T09:46:51.153Z,24.80
2019-03-13T09:49:17.796Z,24.88
2019-03-13T09:51:44.467Z,25.03
2019-03-13T09:54:11.159Z,24.83
2019-03-13T09:56:37.814Z,24.95
2019-03-13T09:59:04.465Z,25.03
2019-03-13T10:01:31.124Z,24.99
2019-03-13T10:03:57.760Z,24.96
2019-03-13T10:06:24.455Z,24.88
2019-03-13T10:08:51.098Z,24.94
2019-03-13T10:11:17.943Z,24.84
2019-03-13T10:13:44.583Z,24.89
2019-03-13T10:16:11.236Z,24.93
2019-03-13T10:18:37.878Z,24.89
2019-03-13T10:21:05.805Z,24.93
2019-03-13T10:23:33.059Z,24.98
2019-03-13T10:26:00.826Z,25.03
2019-03-13T10:28:27.662Z,24.89
2019-03-13T10:30:54.510Z,24.79
2019-03-13T10:33:21.242Z,25.00
2019-03-13T10:35:47.887Z,24.81
2019-03-13T10:38:14.615Z,24.85
2019-03-13T10:40:41.234Z,24.80
2019-03-13T10:43:11.638Z,24.95
2019-03-13T10:45:38.319Z,24.86
2019-03-13T10:48:05.024Z,24.76
2019-03-13T10:50:31.674Z,24.74
2019-03-13T10:52:58.438Z,24.77
2019-03-13T10:55:25.095Z,24.89
2019-03-13T10:57:51.759Z,24.94
2019-03-13T11:00:18.465Z,24.93
2019-03-13T11:02:45.125Z,25.03
2019-03-13T11:05:11.828Z,24.97
2019-03-13T11:07:38.481Z,24.84
2019-03-13T11:10:05.115Z,24.85
2019-03-13T11:12:31.803Z,24.98
2019-03-13T11:14:58.502Z,24.90
2019-03-13T11:17:27.743Z,24.94
2019-03-13T11:19:54.520Z,24.95
2019-03-13T11:22:21.220Z,24.98
2019-03-13T11:24:47.900Z,25.05
2019-03-13T11:27:14.657Z,24.97
2019-03-13T11:29:41.305Z,24.95
2019-03-13T11:32:07.993Z,24.95
2019-03-13T11:34:34.978Z,25.05
2019-03-13T11:37:01.677Z,25.05
2019-03-13T11:39:28.380Z,24.99
2019-03-13T11:41:55.024Z,25.06
2019-03-13T11:44:21.688Z,25.09
2019-03-13T11:46:48.335Z,25.01
2019-03-13T11:49:15.107Z,25.09
2019-03-13T11:51:41.751Z,24.94
2019-03-13T11:54:08.391Z,25.22
2019-03-13T11:56:35.039Z,25.12
2019-03-13T11:59:01.691Z,25.25
2019-03-13T12:01:28.329Z,25.32
2019-03-13T12:03:55.021Z,25.21
2019-03-13T12:06:21.675Z,25.19
2019-03-13T12:08:48.371Z,25.25
2019-03-13T12:11:15.021Z,25.29
2019-03-13T12:13:41.722Z,25.35
2019-03-13T12:16:08.361Z,25.44
2019-03-13T12:18:35.010Z,25.42
2019-03-13T12:21:01.705Z,25.45
2019-03-13T12:23:28.355Z,25.49
2019-03-13T12:25:55.026Z,25.40
2019-03-13T12:28:21.704Z,25.45
2019-03-13T12:30:48.459Z,25.58
2019-03-13T12:33:15.129Z,25.60
2019-03-13T12:35:41.780Z,25.49
2019-03-13T12:38:08.527Z,25.53
2019-03-13T12:40:35.178Z,25.46
2019-03-13T12:43:04.742Z,25.52
2019-03-13T12:45:31.404Z,25.44
2019-03-13T12:47:58.051Z,25.46
2019-03-13T12:50:24.691Z,25.40
2019-03-13T12:52:51.467Z,25.30
2019-03-13T12:55:18.165Z,25.48
2019-03-13T12:57:44.837Z,25.30
2019-03-13T13:00:11.506Z,25.49
2019-03-13T13:02:38.179Z,25.31
2019-03-13T13:05:04.818Z,25.37
2019-03-13T13:07:31.509Z,25.29
2019-03-13T13:09:58.158Z,25.31
2019-03-13T13:12:24.858Z,25.43
2019-03-13T13:14:52.582Z,25.30
2019-03-13T13:17:20.140Z,25.21
2019-03-13T13:19:46.799Z,25.35
2019-03-13T13:22:13.485Z,25.35
2019-03-13T13:24:40.151Z,25.22
2019-03-13T13:27:06.793Z,25.34
2019-03-13T13:29:33.491Z,25.29
2019-03-13T13:32:00.170Z,25.17
2019-03-13T13:34:26.849Z,25.31
2019-03-13T13:36:53.503Z,25.16
2019-03-13T13:39:20.163Z,25.12
2019-03-13T13:41:46.817Z,25.14
2019-03-13T13:44:13.469Z,25.16
2019-03-13T13:46:40.127Z,25.18
2019-03-13T13:49:06.777Z,25.16
2019-03-13T13:51:33.488Z,25.20
2019-03-13T13:54:00.144Z,25.09
2019-03-13T13:56:26.870Z,25.06
2019-03-13T13:58:53.521Z,25.07
2019-03-13T14:01:20.186Z,25.01
2019-03-13T14:03:46.865Z,25.06
2019-03-13T14:06:13.669Z,25.14
2019-03-13T14:08:40.350Z,23.83
2019-03-13T14:11:07.055Z,25.03
2019-03-13T14:13:33.703Z,25.09
2019-03-13T14:16:00.406Z,25.00
2019-03-13T14:18:27.081Z,25.04
2019-03-13T14:20:53.717Z,25.13
2019-03-13T14:23:20.390Z,25.00
2019-03-13T14:25:47.107Z,25.12
2019-03-13T14:28:13.742Z,25.08
2019-03-13T14:30:40.439Z,25.05
2019-03-13T14:33:07.092Z,25.10
2019-03-13T14:35:33.738Z,25.06
2019-03-13T14:38:00.514Z,25.15
2019-03-13T14:40:27.565Z,25.21
2019-03-13T14:42:54.354Z,25.30
2019-03-13T14:45:21.000Z,25.31
2019-03-13T14:47:47.672Z,25.30
2019-03-13T14:50:14.356Z,25.20
2019-03-13T14:52:41.037Z,25.08
2019-03-13T14:55:07.738Z,25.11
2019-03-13T14:57:34.388Z,24.99
2019-03-13T15:00:01.031Z,24.82
2019-03-13T15:02:27.739Z,24.78
2019-03-13T15:04:54.504Z,24.77
2019-03-13T15:07:21.159Z,24.77
2019-03-13T15:09:47.816Z,24.75
2019-03-13T15:12:14.505Z,24.85
2019-03-13T15:14:41.142Z,24.77
2019-03-13T15:17:07.799Z,24.72
2019-03-13T15:19:34.454Z,24.71
2019-03-13T15:22:01.104Z,24.84
2019-03-13T15:24:27.794Z,24.91
2019-03-13T15:26:54.432Z,24.72
2019-03-13T15:29:21.116Z,24.71
2019-03-13T15:31:47.773Z,24.70
2019-03-13T15:34:14.418Z,24.83
2019-03-13T15:36:41.062Z,24.71
2019-03-13T15:39:07.768Z,24.65
2019-03-13T15:41:34.424Z,24.61
2019-03-13T15:44:01.218Z,24.62
2019-03-13T15:46:27.908Z,24.66
2019-03-13T15:48:54.557Z,24.65
2019-03-13T15:51:21.216Z,24.60
2019-03-13T15:53:47.870Z,24.56
2019-03-13T15:56:14.536Z,24.38
2019-03-13T15:58:41.190Z,24.19
2019-03-13T16:01:07.873Z,24.01
2019-03-13T16:03:34.540Z,23.97
2019-03-13T16:06:01.221Z,24.05
2019-03-13T16:08:27.861Z,24.12
2019-03-13T16:10:54.621Z,24.10
2019-03-13T16:13:21.279Z,24.14
2019-03-13T16:15:47.970Z,24.15
2019-03-13T16:18:14.622Z,24.16
2019-03-13T16:20:41.254Z,24.16
2019-03-13T16:23:07.952Z,24.16
2019-03-13T16:25:34.605Z,24.17
2019-03-13T16:28:01.256Z,24.17
2019-03-13T16:30:27.902Z,24.16
2019-03-13T16:32:54.574Z,24.17
2019-03-13T16:35:21.217Z,24.15
2019-03-13T16:37:47.859Z,24.14
2019-03-13T16:40:14.515Z,24.11
2019-03-13T16:42:41.257Z,24.15
2019-03-13T16:45:07.898Z,24.14
2019-03-13T16:47:34.531Z,24.24
2019-03-13T16:50:01.237Z,24.14
2019-03-13T16:52:27.911Z,24.15
2019-03-13T16:54:54.549Z,24.13
2019-03-13T16:57:21.247Z,24.12
2019-03-13T17:00:00.096Z,24.12
2019-03-13T17:02:14.597Z,24.11
2019-03-13T17:04:41.257Z,24.03
2019-03-13T17:07:07.914Z,24.06
2019-03-13T17:09:34.558Z,24.09
2019-03-13T17:12:01.198Z,24.10
2019-03-13T17:14:27.848Z,24.07
2019-03-13T17:16:54.503Z,24.09
2019-03-13T17:19:21.148Z,24.10
2019-03-13T17:21:47.836Z,24.14
2019-03-13T17:24:14.481Z,24.07
2019-03-13T17:26:41.135Z,23.99
2019-03-13T17:29:07.770Z,24.01
2019-03-13T17:31:34.471Z,24.00
2019-03-13T17:34:01.118Z,23.98
2019-03-13T17:36:27.764Z,23.97
2019-03-13T17:38:54.414Z,23.98
2019-03-13T17:41:21.063Z,23.99
2019-03-13T17:43:47.767Z,23.95
2019-03-13T17:46:14.422Z,23.92
2019-03-13T17:48:41.117Z,23.91
2019-03-13T17:51:07.756Z,23.95
2019-03-13T17:53:34.400Z,23.91
2019-03-13T17:56:01.101Z,23.89
2019-03-13T17:58:27.737Z,23.87
2019-03-13T18:00:54.439Z,23.85
2019-03-13T18:03:21.084Z,23.85
2019-03-13T18:05:47.782Z,23.83
2019-03-13T18:08:14.443Z,23.86
2019-03-13T18:10:41.215Z,23.83
2019-03-13T18:13:07.871Z,23.83
2019-03-13T18:15:34.516Z,23.81
2019-03-13T18:18:01.192Z,23.81
2019-03-13T18:20:27.825Z,23.77
2019-03-13T18:22:54.590Z,23.73
2019-03-13T18:25:21.229Z,23.75
2019-03-13T18:27:47.869Z,23.75
2019-03-13T18:30:14.512Z,23.79
2019-03-13T18:32:42.190Z,23.70
2019-03-13T18:35:07.808Z,23.73
2019-03-13T18:37:34.452Z,23.68
2019-03-13T18:40:01.084Z,23.66
2019-03-13T18:42:27.762Z,23.65
2019-03-13T18:44:54.400Z,23.67
2019-03-13T18:47:21.046Z,23.67
2019-03-13T18:49:47.743Z,23.65
2019-03-13T18:52:14.424Z,23.66
2019-03-13T18:54:41.061Z,23.65
2019-03-13T18:57:07.765Z,23.64
2019-03-13T18:59:34.424Z,23.60
2019-03-13T19:02:01.071Z,23.62
2019-03-13T19:04:27.741Z,23.66
2019-03-13T19:06:54.423Z,23.72
2019-03-13T19:09:21.060Z,23.62
2019-03-13T19:11:47.742Z,23.61
2019-03-13T19:14:14.385Z,23.62
2019-03-13T19:16:41.061Z,23.61
2019-03-13T19:19:07.715Z,23.59
2019-03-13T19:21:34.400Z,23.59
2019-03-13T19:24:02.635Z,23.55
2019-03-13T19:26:27.730Z,23.53
2019-03-13T19:28:54.386Z,23.56
2019-03-13T19:31:21.057Z,23.55
2019-03-13T19:33:47.711Z,23.54
2019-03-13T19:36:14.354Z,23.48
2019-03-13T19:38:41.321Z,23.47
2019-03-13T19:41:08.864Z,23.45
2019-03-13T19:43:34.364Z,23.44
2019-03-13T19:46:01.088Z,23.47
2019-03-13T19:48:27.724Z,23.46
2019-03-13T19:50:56.633Z,23.44
2019-03-13T19:53:21.119Z,23.44
2019-03-13T19:55:47.765Z,23.43
2019-03-13T19:58:14.499Z,23.39
2019-03-13T20:00:41.081Z,23.39
2019-03-13T20:03:07.724Z,23.39
2019-03-13T20:05:44.856Z,23.38
2019-03-13T20:08:01.037Z,23.36
2019-03-13T20:10:27.713Z,23.37
2019-03-13T20:12:54.384Z,23.37
2019-03-13T20:15:21.044Z,23.37
2019-03-13T20:17:47.778Z,23.34
2019-03-13T20:20:14.417Z,23.35
2019-03-13T20:22:41.064Z,23.34
2019-03-13T20:25:07.704Z,23.35
2019-03-13T20:27:34.352Z,23.36
2019-03-13T20:30:01.005Z,23.35
2019-03-13T20:32:27.652Z,23.35
2019-03-13T20:34:54.296Z,23.30
2019-03-13T20:37:20.957Z,23.30
2019-03-13T20:39:47.601Z,23.28
2019-03-13T20:42:14.263Z,23.29
2019-03-13T20:44:40.897Z,23.29
2019-03-13T20:47:07.539Z,23.31
2019-03-13T20:49:34.245Z,23.33
2019-03-13T20:52:00.887Z,23.34
2019-03-13T20:54:27.543Z,23.31
2019-03-13T20:56:54.190Z,23.33
2019-03-13T20:59:20.878Z,23.31
2019-03-13T21:01:47.567Z,23.30
2019-03-13T21:04:14.208Z,23.26
2019-03-13T21:06:40.859Z,23.29
2019-03-13T21:09:07.498Z,23.27
2019-03-13T21:11:34.185Z,23.28
2019-03-13T21:14:01.025Z,23.28
2019-03-13T21:16:27.701Z,23.29
2019-03-13T21:18:54.348Z,23.29
2019-03-13T21:21:21.002Z,23.27
2019-03-13T21:23:47.678Z,23.27
2019-03-13T21:26:14.318Z,23.23
2019-03-13T21:28:40.968Z,23.25
2019-03-13T21:31:07.639Z,23.26
2019-03-13T21:33:34.328Z,23.20
2019-03-13T21:36:01.016Z,23.25
2019-03-13T21:38:27.660Z,23.20
2019-03-13T21:40:54.299Z,23.24
2019-03-13T21:43:20.998Z,23.23
2019-03-13T21:45:47.684Z,23.21
2019-03-13T21:48:14.323Z,23.21
2019-03-13T21:50:40.980Z,23.18
2019-03-13T21:53:07.625Z,23.16
2019-03-13T21:55:34.303Z,23.17
2019-03-13T21:58:00.945Z,23.14
2019-03-13T22:00:27.610Z,23.13
2019-03-13T22:02:54.273Z,23.15
2019-03-13T22:05:26.188Z,23.15
2019-03-13T22:07:47.699Z,23.11
2019-03-13T22:10:14.336Z,23.13
2019-03-13T22:12:41.020Z,23.09
2019-03-13T22:15:07.632Z,23.12
2019-03-13T22:17:34.268Z,23.09
2019-03-13T22:20:00.918Z,23.07
2019-03-13T22:22:27.557Z,23.09
2019-03-13T22:24:54.243Z,23.08
2019-03-13T22:27:20.867Z,23.08
2019-03-13T22:29:47.546Z,23.06
2019-03-13T22:32:14.186Z,23.05
2019-03-13T22:34:40.834Z,23.07
2019-03-13T22:37:07.482Z,23.04
2019-03-13T22:39:34.252Z,23.05
2019-03-13T22:42:00.945Z,23.08
2019-03-13T22:44:27.667Z,23.04
2019-03-13T22:46:54.369Z,23.05
2019-03-13T22:49:21.034Z,23.03
2019-03-13T22:51:47.641Z,23.04
2019-03-13T22:54:14.293Z,23.01
2019-03-13T22:56:40.988Z,23.06
2019-03-13T22:59:07.719Z,23.03
2019-03-13T23:01:34.418Z,23.05
2019-03-13T23:04:01.112Z,23.05
2019-03-13T23:06:27.793Z,23.04
2019-03-13T23:08:54.563Z,23.05
2019-03-13T23:11:21.304Z,23.00
2019-03-13T23:13:47.979Z,23.02
2019-03-13T23:16:14.625Z,23.03
2019-03-13T23:18:41.262Z,23.02
2019-03-13T23:21:07.950Z,23.02
2019-03-13T23:23:34.585Z,22.98
2019-03-13T23:26:01.286Z,22.96
2019-03-13T23:28:27.965Z,22.98
2019-03-13T23:30:54.605Z,22.98
2019-03-13T23:33:21.298Z,22.99
2019-03-13T23:35:47.917Z,22.98
2019-03-13T23:38:14.598Z,22.97
2019-03-13T23:40:41.243Z,22.96
2019-03-13T23:43:07.889Z,22.94
2019-03-13T23:45:34.548Z,22.95
2019-03-13T23:48:01.246Z,22.98
2019-03-13T23:50:27.937Z,22.97
2019-03-13T23:52:54.575Z,22.96
2019-03-13T23:55:21.271Z,22.94
2019-03-13T23:57:47.900Z,22.96
